sensor_id;sensor_type;location;lat;lon;timestamp;pressure;altitude;pressure_sealevel;temperature;humidity
13407;BME280;6774;48.208;10.766;2024-01-15T00:02:19;94362.31;;;-0.17;83.93
13407;BME280;6774;48.208;10.766;2024-01-15T00:04:47;94370.34;;;-0.03;83.30
13407;BME280;6774;48.208;10.766;2024-01-15T00:07:14;94378.94;;;-0.02;83.18
13407;BME280;6774;48.208;10.766;2024-01-15T00:09:42;94391.97;;;0.06;83.10
13407;BME280;6774;48.208;10.766;2024-01-15T00:12:10;94372.47;;;-0.42;82.64
13407;BME280;6774;48.208;10.766;2024-01-15T00:14:38;94373.28;;;-0.59;83.61
13407;BME280;6774;48.208;10.766;2024-01-15T00:17:05;94390.56;;;-0.77;83.15
13407;BME280;6774;48.208;10.766;2024-01-15T00:19:35;94382.56;;;-0.84;82.72
13407;BME280;6774;48.208;10.766;2024-01-15T00:22:03;94357.41;;;-0.92;81.49
13407;BME280;6774;48.208;10.766;2024-01-15T00:24:30;94393.66;;;-0.92;81.50
13407;BME280;6774;48.208;10.766;2024-01-15T00:26:58;94378.91;;;-1.09;81.20
13407;BME280;6774;48.208;10.766;2024-01-15T00:29:26;94387.31;;;-1.25;80.95
13407;BME280;6774;48.208;10.766;2024-01-15T00:31:54;94377.19;;;-1.18;81.21
13407;BME280;6774;48.208;10.766;2024-01-15T00:34:22;94375.84;;;-1.22;80.02
13407;BME280;6774;48.208;10.766;2024-01-15T00:36:51;94375.59;;;-1.29;79.15
13407;BME280;6774;48.208;10.766;2024-01-15T00:39:19;94385.66;;;-1.26;78.97
13407;BME280;6774;48.208;10.766;2024-01-15T00:41:47;94374.22;;;-1.23;79.69
13407;BME280;6774;48.208;10.766;2024-01-15T00:44:15;94369.44;;;-1.18;78.65
13407;BME280;6774;48.208;10.766;2024-01-15T00:46:43;94387.81;;;-1.21;78.51
13407;BME280;6774;48.208;10.766;2024-01-15T00:49:12;94388.41;;;-1.27;78.34
13407;BME280;6774;48.208;10.766;2024-01-15T00:51:40;94398.16;;;-1.21;78.47
13407;BME280;6774;48.208;10.766;2024-01-15T00:54:10;94394.34;;;-1.17;77.69
13407;BME280;6774;48.208;10.766;2024-01-15T00:56:38;94402.47;;;-1.12;77.83
13407;BME280;6774;48.208;10.766;2024-01-15T00:59:05;94389.06;;;-1.25;77.56
13407;BME280;6774;48.208;10.766;2024-01-15T01:01:34;94397.41;;;-1.31;76.83
13407;BME280;6774;48.208;10.766;2024-01-15T01:04:02;94397.97;;;-1.37;77.51
13407;BME280;6774;48.208;10.766;2024-01-15T01:06:30;94391.06;;;-1.47;77.18
13407;BME280;6774;48.208;10.766;2024-01-15T01:09:00;94395.19;;;-1.54;77.53
13407;BME280;6774;48.208;10.766;2024-01-15T01:11:29;94387.13;;;-1.51;77.05
13407;BME280;6774;48.208;10.766;2024-01-15T01:13:57;94396.44;;;-1.67;77.86
13407;BME280;6774;48.208;10.766;2024-01-15T01:16:24;94401.13;;;-1.81;77.83
13407;BME280;6774;48.208;10.766;2024-01-15T01:18:52;94391.59;;;-1.90;78.46
13407;BME280;6774;48.208;10.766;2024-01-15T01:21:20;94401.13;;;-1.90;78.59
13407;BME280;6774;48.208;10.766;2024-01-15T01:23:48;94384.69;;;-1.99;78.25
13407;BME280;6774;48.208;10.766;2024-01-15T01:26:17;94387.13;;;-1.97;78.01
13407;BME280;6774;48.208;10.766;2024-01-15T01:28:46;94382.91;;;-1.98;78.03
13407;BME280;6774;48.208;10.766;2024-01-15T01:31:14;94399.25;;;-2.08;78.07
13407;BME280;6774;48.208;10.766;2024-01-15T01:33:43;94397.63;;;-2.09;78.52
13407;BME280;6774;48.208;10.766;2024-01-15T01:36:11;94386.72;;;-2.03;78.27
13407;BME280;6774;48.208;10.766;2024-01-15T01:38:40;94388.34;;;-2.11;78.51
13407;BME280;6774;48.208;10.766;2024-01-15T01:41:08;94382.94;;;-2.18;78.04
13407;BME280;6774;48.208;10.766;2024-01-15T01:43:35;94385.41;;;-2.26;78.35
13407;BME280;6774;48.208;10.766;2024-01-15T01:46:05;94392.72;;;-2.21;78.26
13407;BME280;6774;48.208;10.766;2024-01-15T01:48:35;94388.13;;;-2.47;79.17
13407;BME280;6774;48.208;10.766;2024-01-15T01:51:04;94406.47;;;-2.31;79.28
13407;BME280;6774;48.208;10.766;2024-01-15T01:53:34;94405.91;;;-2.15;78.68
13407;BME280;6774;48.208;10.766;2024-01-15T01:56:02;94402.09;;;-2.20;78.36
13407;BME280;6774;48.208;10.766;2024-01-15T01:58:32;94393.31;;;-2.37;78.64
13407;BME280;6774;48.208;10.766;2024-01-15T02:01:00;94407.97;;;-2.47;78.76
13407;BME280;6774;48.208;10.766;2024-01-15T02:03:30;94396.00;;;-2.48;79.60
13407;BME280;6774;48.208;10.766;2024-01-15T02:05:59;94394.38;;;-2.49;79.63
13407;BME280;6774;48.208;10.766;2024-01-15T02:08:27;94389.78;;;-2.55;79.73
13407;BME280;6774;48.208;10.766;2024-01-15T02:10:55;94399.53;;;-2.49;79.71
13407;BME280;6774;48.208;10.766;2024-01-15T02:13:22;94394.94;;;-2.55;80.42
13407;BME280;6774;48.208;10.766;2024-01-15T02:15:50;94389.78;;;-2.55;80.26
13407;BME280;6774;48.208;10.766;2024-01-15T02:18:18;94390.59;;;-2.45;80.42
13407;BME280;6774;48.208;10.766;2024-01-15T02:20:48;94385.41;;;-2.45;80.46
13407;BME280;6774;48.208;10.766;2024-01-15T02:23:17;94391.41;;;-2.45;80.40
13407;BME280;6774;48.208;10.766;2024-01-15T02:25:46;94394.78;;;-2.35;80.59
13407;BME280;6774;48.208;10.766;2024-01-15T02:28:16;94395.06;;;-2.28;80.65
13407;BME280;6774;48.208;10.766;2024-01-15T02:30:44;94383.19;;;-2.21;80.51
13407;BME280;6774;48.208;10.766;2024-01-15T02:33:13;94396.69;;;-2.17;80.65
13407;BME280;6774;48.208;10.766;2024-01-15T02:35:41;94392.47;;;-2.18;80.46
13407;BME280;6774;48.208;10.766;2024-01-15T02:38:09;94401.72;;;-2.16;80.53
13407;BME280;6774;48.208;10.766;2024-01-15T02:40:38;94396.25;;;-2.13;80.26
13407;BME280;6774;48.208;10.766;2024-01-15T02:43:06;94389.88;;;-2.18;80.10
13407;BME280;6774;48.208;10.766;2024-01-15T02:45:34;94396.28;;;-2.32;80.18
13407;BME280;6774;48.208;10.766;2024-01-15T02:48:02;94389.75;;;-2.17;79.76
13407;BME280;6774;48.208;10.766;2024-01-15T02:50:30;94391.91;;;-2.22;79.49
13407;BME280;6774;48.208;10.766;2024-01-15T02:52:58;94387.16;;;-2.26;79.27
13407;BME280;6774;48.208;10.766;2024-01-15T02:55:26;94398.72;;;-2.21;79.29
13407;BME280;6774;48.208;10.766;2024-01-15T02:57:57;94396.00;;;-2.29;79.67
13407;BME280;6774;48.208;10.766;2024-01-15T03:00:25;94397.66;;;-2.28;79.48
13407;BME280;6774;48.208;10.766;2024-01-15T03:02:53;94390.81;;;-2.29;78.88
13407;BME280;6774;48.208;10.766;2024-01-15T03:05:20;94384.47;;;-2.44;79.35
13407;BME280;6774;48.208;10.766;2024-01-15T03:07:48;94376.84;;;-2.36;79.13
13407;BME280;6774;48.208;10.766;2024-01-15T03:10:16;94381.06;;;-2.35;78.96
13407;BME280;6774;48.208;10.766;2024-01-15T03:12:44;94394.91;;;-2.17;78.51
13407;BME280;6774;48.208;10.766;2024-01-15T03:15:13;94393.41;;;-2.29;78.76
13407;BME280;6774;48.208;10.766;2024-01-15T03:17:41;94401.28;;;-2.21;78.44
13407;BME280;6774;48.208;10.766;2024-01-15T03:20:11;94411.09;;;-2.15;78.61
13407;BME280;6774;48.208;10.766;2024-01-15T03:22:39;94412.59;;;-2.22;78.54
13407;BME280;6774;48.208;10.766;2024-01-15T03:25:07;94409.59;;;-2.17;79.08
13407;BME280;6774;48.208;10.766;2024-01-15T03:27:35;94388.50;;;-2.13;78.99
13407;BME280;6774;48.208;10.766;2024-01-15T03:30:03;94392.22;;;-2.35;79.37
13407;BME280;6774;48.208;10.766;2024-01-15T03:32:32;94390.00;;;-2.30;79.21
13407;BME280;6774;48.208;10.766;2024-01-15T03:35:00;94383.19;;;-2.21;79.13
13407;BME280;6774;48.208;10.766;2024-01-15T03:37:28;94396.28;;;-2.32;79.07
13407;BME280;6774;48.208;10.766;2024-01-15T03:39:56;94395.19;;;-2.39;79.05
13407;BME280;6774;48.208;10.766;2024-01-15T03:42:24;94389.91;;;-2.28;78.95
13407;BME280;6774;48.208;10.766;2024-01-15T03:44:52;94405.78;;;-2.42;78.86
13407;BME280;6774;48.208;10.766;2024-01-15T03:47:19;94394.34;;;-2.20;78.38
13407;BME280;6774;48.208;10.766;2024-01-15T03:49:49;94379.13;;;-2.23;78.20
13407;BME280;6774;48.208;10.766;2024-01-15T03:52:17;94381.56;;;-2.22;78.17
13407;BME280;6774;48.208;10.766;2024-01-15T03:54:44;94383.06;;;-2.10;77.97
13407;BME280;6774;48.208;10.766;2024-01-15T03:57:12;94391.75;;;-2.11;78.17
13407;BME280;6774;48.208;10.766;2024-01-15T03:59:40;94363.03;;;-1.88;78.14
13407;BME280;6774;48.208;10.766;2024-01-15T04:02:08;94365.13;;;-1.74;78.13
13407;BME280;6774;48.208;10.766;2024-01-15T04:04:35;94354.81;;;-1.74;77.76
13407;BME280;6774;48.208;10.766;2024-01-15T04:07:05;94372.09;;;-1.75;77.60
13407;BME280;6774;48.208;10.766;2024-01-15T04:09:32;94365.44;;;-1.77;77.23
13407;BME280;6774;48.208;10.766;2024-01-15T04:12:02;94368.94;;;-1.68;77.90
13407;BME280;6774;48.208;10.766;2024-01-15T04:14:30;94373.75;;;-1.83;77.67
13407;BME280;6774;48.208;10.766;2024-01-15T04:16:58;94368.75;;;-2.04;78.15
13407;BME280;6774;48.208;10.766;2024-01-15T04:19:25;94367.94;;;-2.05;78.29
13407;BME280;6774;48.208;10.766;2024-01-15T04:21:53;94379.66;;;-2.01;78.31
13407;BME280;6774;48.208;10.766;2024-01-15T04:24:22;94360.81;;;-1.74;77.80
13407;BME280;6774;48.208;10.766;2024-01-15T04:26:51;94368.56;;;-1.74;76.92
13407;BME280;6774;48.208;10.766;2024-01-15T04:29:18;94372.63;;;-1.71;76.70
13407;BME280;6774;48.208;10.766;2024-01-15T04:31:46;94374.88;;;-1.95;76.95
13407;BME280;6774;48.208;10.766;2024-01-15T04:34:14;94374.19;;;-1.97;77.04
13407;BME280;6774;48.208;10.766;2024-01-15T04:36:42;94372.44;;;-2.07;77.02
13407;BME280;6774;48.208;10.766;2024-01-15T04:39:10;94368.69;;;-1.75;76.89
13407;BME280;6774;48.208;10.766;2024-01-15T04:41:40;94372.28;;;-1.95;76.39
13407;BME280;6774;48.208;10.766;2024-01-15T04:44:08;94371.78;;;-2.09;77.69
13407;BME280;6774;48.208;10.766;2024-01-15T04:46:36;94359.81;;;-2.10;78.39
13407;BME280;6774;48.208;10.766;2024-01-15T04:49:03;94353.06;;;-1.83;77.58
13407;BME280;6774;48.208;10.766;2024-01-15T04:51:31;94374.22;;;-1.60;76.24
13407;BME280;6774;48.208;10.766;2024-01-15T04:53:59;94379.97;;;-1.66;76.36
13407;BME280;6774;48.208;10.766;2024-01-15T04:56:27;94375.13;;;-1.42;76.15
13407;BME280;6774;48.208;10.766;2024-01-15T04:58:56;94382.16;;;-1.34;75.79
13407;BME280;6774;48.208;10.766;2024-01-15T05:01:23;94367.16;;;-1.31;75.89
13407;BME280;6774;48.208;10.766;2024-01-15T05:03:51;94368.84;;;-1.39;75.59
13407;BME280;6774;48.208;10.766;2024-01-15T05:06:22;94375.06;;;-1.32;75.80
13407;BME280;6774;48.208;10.766;2024-01-15T05:08:50;94378.31;;;-1.30;75.35
13407;BME280;6774;48.208;10.766;2024-01-15T05:11:18;94375.06;;;-1.05;75.14
13407;BME280;6774;48.208;10.766;2024-01-15T05:13:46;94381.22;;;-1.06;75.16
13407;BME280;6774;48.208;10.766;2024-01-15T05:16:15;94378.22;;;-1.11;73.99
13407;BME280;6774;48.208;10.766;2024-01-15T05:18:42;94377.25;;;-0.82;74.14
13407;BME280;6774;48.208;10.766;2024-01-15T05:21:10;94370.22;;;-0.90;74.57
13407;BME280;6774;48.208;10.766;2024-01-15T05:23:38;94378.78;;;-1.07;74.66
13407;BME280;6774;48.208;10.766;2024-01-15T05:26:06;94370.91;;;-1.16;74.21
13407;BME280;6774;48.208;10.766;2024-01-15T05:28:35;94369.84;;;-1.23;74.45
13407;BME280;6774;48.208;10.766;2024-01-15T05:31:03;94368.72;;;-1.20;74.14
13407;BME280;6774;48.208;10.766;2024-01-15T05:33:33;94375.16;;;-1.24;74.22
13407;BME280;6774;48.208;10.766;2024-01-15T05:36:00;94369.41;;;-0.91;73.56
13407;BME280;6774;48.208;10.766;2024-01-15T05:38:29;94375.75;;;-0.85;73.37
13407;BME280;6774;48.208;10.766;2024-01-15T05:40:56;94371.94;;;-0.63;73.38
13407;BME280;6774;48.208;10.766;2024-01-15T05:43:24;94369.06;;;-0.60;73.12
13407;BME280;6774;48.208;10.766;2024-01-15T05:45:52;94365.06;;;-0.54;73.32
13407;BME280;6774;48.208;10.766;2024-01-15T05:48:20;94371.81;;;-0.44;72.89
13407;BME280;6774;48.208;10.766;2024-01-15T05:50:49;94374.00;;;-0.49;73.29
13407;BME280;6774;48.208;10.766;2024-01-15T05:53:17;94360.91;;;-0.47;72.95
13407;BME280;6774;48.208;10.766;2024-01-15T05:55:45;94359.50;;;-0.42;72.80
13407;BME280;6774;48.208;10.766;2024-01-15T05:58:13;94362.91;;;-0.59;73.43
13407;BME280;6774;48.208;10.766;2024-01-15T06:00:40;94357.72;;;-0.59;73.66
13407;BME280;6774;48.208;10.766;2024-01-15T06:03:08;94360.97;;;-0.57;73.70
13407;BME280;6774;48.208;10.766;2024-01-15T06:05:36;94357.88;;;-0.43;74.79
13407;BME280;6774;48.208;10.766;2024-01-15T06:08:05;94360.16;;;-0.75;75.72
13407;BME280;6774;48.208;10.766;2024-01-15T06:10:33;94357.13;;;-0.89;76.27
13407;BME280;6774;48.208;10.766;2024-01-15T06:13:01;94355.56;;;-0.99;76.66
13407;BME280;6774;48.208;10.766;2024-01-15T06:15:29;94363.03;;;-0.96;76.83
13407;BME280;6774;48.208;10.766;2024-01-15T06:17:57;94364.50;;;-0.94;77.06
13407;BME280;6774;48.208;10.766;2024-01-15T06:20:25;94362.63;;;-1.01;77.49
13407;BME280;6774;48.208;10.766;2024-01-15T06:22:52;94365.97;;;-1.09;77.66
13407;BME280;6774;48.208;10.766;2024-01-15T06:25:22;94363.75;;;-1.04;77.14
13407;BME280;6774;48.208;10.766;2024-01-15T06:27:49;94369.22;;;-1.07;78.28
13407;BME280;6774;48.208;10.766;2024-01-15T06:30:17;94369.44;;;-1.18;78.82
13407;BME280;6774;48.208;10.766;2024-01-15T06:32:45;94368.28;;;-1.33;78.53
13407;BME280;6774;48.208;10.766;2024-01-15T06:35:13;94372.19;;;-1.29;78.82
13407;BME280;6774;48.208;10.766;2024-01-15T06:37:41;94372.63;;;-1.34;79.92
13407;BME280;6774;48.208;10.766;2024-01-15T06:40:09;94374.16;;;-1.41;80.14
13407;BME280;6774;48.208;10.766;2024-01-15T06:42:38;94368.00;;;-1.40;80.28
13407;BME280;6774;48.208;10.766;2024-01-15T06:45:07;94359.34;;;-1.49;80.14
13407;BME280;6774;48.208;10.766;2024-01-15T06:47:35;94350.25;;;-1.25;80.20
13407;BME280;6774;48.208;10.766;2024-01-15T06:50:03;94352.25;;;-1.47;80.49
13407;BME280;6774;48.208;10.766;2024-01-15T06:52:33;94354.56;;;-1.44;80.78
13407;BME280;6774;48.208;10.766;2024-01-15T06:55:01;94347.88;;;-1.36;80.48
13407;BME280;6774;48.208;10.766;2024-01-15T06:57:29;94351.69;;;-1.40;80.17
13407;BME280;6774;48.208;10.766;2024-01-15T06:59:58;94347.81;;;-1.27;80.17
13407;BME280;6774;48.208;10.766;2024-01-15T07:02:26;94354.72;;;-1.18;80.50
13407;BME280;6774;48.208;10.766;2024-01-15T07:04:53;94348.28;;;-1.13;79.97
13407;BME280;6774;48.208;10.766;2024-01-15T07:07:21;94339.41;;;-1.38;79.85
13407;BME280;6774;48.208;10.766;2024-01-15T07:09:49;94342.28;;;-1.14;79.99
13407;BME280;6774;48.208;10.766;2024-01-15T07:12:18;94351.47;;;-1.29;80.43
13407;BME280;6774;48.208;10.766;2024-01-15T07:14:46;94354.88;;;-1.29;80.09
13407;BME280;6774;48.208;10.766;2024-01-15T07:17:15;94348.84;;;-1.20;79.66
13407;BME280;6774;48.208;10.766;2024-01-15T07:19:43;94338.44;;;-1.37;79.64
13407;BME280;6774;48.208;10.766;2024-01-15T07:22:11;94325.25;;;-1.34;79.04
13407;BME280;6774;48.208;10.766;2024-01-15T07:24:39;94299.25;;;-1.15;77.85
13407;BME280;6774;48.208;10.766;2024-01-15T07:27:07;94339.28;;;-1.09;77.01
13407;BME280;6774;48.208;10.766;2024-01-15T07:29:35;94327.88;;;-0.99;77.68
13407;BME280;6774;48.208;10.766;2024-01-15T07:32:04;94333.72;;;-0.97;76.96
13407;BME280;6774;48.208;10.766;2024-01-15T07:34:35;94325.56;;;-1.02;76.60
13407;BME280;6774;48.208;10.766;2024-01-15T07:37:03;94345.19;;;-0.99;77.06
13407;BME280;6774;48.208;10.766;2024-01-15T07:39:31;94343.50;;;-0.91;77.58
13407;BME280;6774;48.208;10.766;2024-01-15T07:41:59;94324.69;;;-0.93;77.35
13407;BME280;6774;48.208;10.766;2024-01-15T07:44:27;94335.34;;;-0.96;76.95
13407;BME280;6774;48.208;10.766;2024-01-15T07:46:55;94341.81;;;-0.82;76.83
13407;BME280;6774;48.208;10.766;2024-01-15T07:49:22;94335.53;;;-0.79;76.74
13407;BME280;6774;48.208;10.766;2024-01-15T07:51:52;94343.66;;;-0.74;76.88
13407;BME280;6774;48.208;10.766;2024-01-15T07:54:20;94330.34;;;-0.44;77.62
13407;BME280;6774;48.208;10.766;2024-01-15T07:56:55;94343.22;;;-0.52;76.71
13407;BME280;6774;48.208;10.766;2024-01-15T07:59:23;94328.81;;;-0.29;76.37
13407;BME280;6774;48.208;10.766;2024-01-15T08:01:52;94328.47;;;0.10;75.18
13407;BME280;6774;48.208;10.766;2024-01-15T08:04:20;94320.84;;;-0.09;74.81
13407;BME280;6774;48.208;10.766;2024-01-15T08:06:48;94326.59;;;-0.23;76.89
13407;BME280;6774;48.208;10.766;2024-01-15T08:09:18;94332.19;;;-0.36;77.69
13407;BME280;6774;48.208;10.766;2024-01-15T08:11:45;94330.69;;;-0.39;78.17
13407;BME280;6774;48.208;10.766;2024-01-15T08:14:13;94321.41;;;-0.23;78.59
13407;BME280;6774;48.208;10.766;2024-01-15T08:16:41;94310.75;;;-0.38;78.09
13407;BME280;6774;48.208;10.766;2024-01-15T08:19:10;94314.97;;;-0.63;78.79
13407;BME280;6774;48.208;10.766;2024-01-15T08:21:38;94320.69;;;-0.34;78.45
13407;BME280;6774;48.208;10.766;2024-01-15T08:24:06;94335.69;;;-0.45;78.61
13407;BME280;6774;48.208;10.766;2024-01-15T08:26:35;94333.91;;;-0.45;78.31
13407;BME280;6774;48.208;10.766;2024-01-15T08:29:03;94337.72;;;-0.49;78.03
13407;BME280;6774;48.208;10.766;2024-01-15T08:31:31;94337.72;;;-0.49;78.65
13407;BME280;6774;48.208;10.766;2024-01-15T08:33:59;94327.28;;;-0.39;78.72
13407;BME280;6774;48.208;10.766;2024-01-15T08:36:28;94338.31;;;-0.37;78.59
13407;BME280;6774;48.208;10.766;2024-01-15T08:38:57;94329.22;;;-0.41;78.10
13407;BME280;6774;48.208;10.766;2024-01-15T08:41:24;94328.81;;;-0.29;77.57
13407;BME280;6774;48.208;10.766;2024-01-15T08:43:53;94331.28;;;-0.01;76.83
13407;BME280;6774;48.208;10.766;2024-01-15T08:46:21;94325.69;;;-0.14;75.95
13407;BME280;6774;48.208;10.766;2024-01-15T08:48:50;94331.44;;;-0.03;76.77
13407;BME280;6774;48.208;10.766;2024-01-15T08:51:18;94346.78;;;-0.09;76.21
13407;BME280;6774;48.208;10.766;2024-01-15T08:53:46;94338.84;;;0.10;75.99
13407;BME280;6774;48.208;10.766;2024-01-15T08:56:14;94339.13;;;0.07;76.24
13407;BME280;6774;48.208;10.766;2024-01-15T08:58:42;94343.31;;;0.00;75.09
13407;BME280;6774;48.208;10.766;2024-01-15T09:01:11;94344.94;;;0.01;76.10
13407;BME280;6774;48.208;10.766;2024-01-15T09:03:39;94331.69;;;-0.14;76.63
13407;BME280;6774;48.208;10.766;2024-01-15T09:06:08;94333.69;;;-0.08;76.44
13407;BME280;6774;48.208;10.766;2024-01-15T09:08:37;94318.19;;;0.01;76.08
13407;BME280;6774;48.208;10.766;2024-01-15T09:11:05;94330.19;;;0.02;75.19
13407;BME280;6774;48.208;10.766;2024-01-15T09:13:32;94328.47;;;0.10;75.62
13407;BME280;6774;48.208;10.766;2024-01-15T09:16:00;94343.00;;;0.03;75.70
13407;BME280;6774;48.208;10.766;2024-01-15T09:18:36;94338.66;;;-0.14;75.85
13407;BME280;6774;48.208;10.766;2024-01-15T09:21:04;94340.34;;;-0.05;75.96
13407;BME280;6774;48.208;10.766;2024-01-15T09:23:32;94337.44;;;0.24;75.06
13407;BME280;6774;48.208;10.766;2024-01-15T09:26:00;94339.63;;;0.37;74.56
13407;BME280;6774;48.208;10.766;2024-01-15T09:28:28;94338.19;;;0.16;74.80
13407;BME280;6774;48.208;10.766;2024-01-15T09:30:55;94334.03;;;0.23;74.10
13407;BME280;6774;48.208;10.766;2024-01-15T09:33:23;94334.34;;;0.20;73.58
13407;BME280;6774;48.208;10.766;2024-01-15T09:35:53;94337.06;;;0.11;73.87
13407;BME280;6774;48.208;10.766;2024-01-15T09:38:21;94323.06;;;0.30;73.07
13407;BME280;6774;48.208;10.766;2024-01-15T09:40:50;94325.91;;;0.52;73.46
13407;BME280;6774;48.208;10.766;2024-01-15T09:43:19;94336.44;;;0.51;72.84
13407;BME280;6774;48.208;10.766;2024-01-15T09:45:50;94323.03;;;0.55;74.25
13407;BME280;6774;48.208;10.766;2024-01-15T09:48:18;94327.16;;;0.40;73.27
13407;BME280;6774;48.208;10.766;2024-01-15T09:50:46;94335.44;;;0.44;73.77
13407;BME280;6774;48.208;10.766;2024-01-15T09:53:16;94323.06;;;0.30;74.11
13407;BME280;6774;48.208;10.766;2024-01-15T09:55:45;94331.44;;;-0.03;75.29
13407;BME280;6774;48.208;10.766;2024-01-15T09:58:13;94323.78;;;0.14;74.94
13407;BME280;6774;48.208;10.766;2024-01-15T10:00:40;94316.03;;;-0.04;75.67
13407;BME280;6774;48.208;10.766;2024-01-15T10:03:10;94311.38;;;-0.26;75.19
13407;BME280;6774;48.208;10.766;2024-01-15T10:05:38;94304.53;;;-0.28;74.46
13407;BME280;6774;48.208;10.766;2024-01-15T10:08:06;94310.66;;;0.92;73.01
13407;BME280;6774;48.208;10.766;2024-01-15T10:10:36;94301.72;;;2.80;67.19
13407;BME280;6774;48.208;10.766;2024-01-15T10:13:04;94295.59;;;4.10;61.96
13407;BME280;6774;48.208;10.766;2024-01-15T10:15:34;94283.75;;;4.22;59.66
13407;BME280;6774;48.208;10.766;2024-01-15T10:18:04;94279.44;;;3.77;60.16
13407;BME280;6774;48.208;10.766;2024-01-15T10:20:32;94282.66;;;2.48;63.43
13407;BME280;6774;48.208;10.766;2024-01-15T10:23:00;94281.06;;;2.31;64.00
13407;BME280;6774;48.208;10.766;2024-01-15T10:25:29;94283.50;;;2.33;64.05
13407;BME280;6774;48.208;10.766;2024-01-15T10:28:03;94268.78;;;3.41;62.68
13407;BME280;6774;48.208;10.766;2024-01-15T10:30:32;94272.28;;;4.38;59.77
13407;BME280;6774;48.208;10.766;2024-01-15T10:33:01;94259.88;;;4.25;58.90
13407;BME280;6774;48.208;10.766;2024-01-15T10:35:30;94264.13;;;5.28;57.71
13407;BME280;6774;48.208;10.766;2024-01-15T10:37:58;94260.59;;;3.44;60.00
13407;BME280;6774;48.208;10.766;2024-01-15T10:40:26;94262.13;;;1.82;63.83
13407;BME280;6774;48.208;10.766;2024-01-15T10:42:54;94255.34;;;1.40;66.06
13407;BME280;6774;48.208;10.766;2024-01-15T10:45:24;94259.84;;;2.50;64.73
13407;BME280;6774;48.208;10.766;2024-01-15T10:47:53;94259.53;;;4.14;61.67
13407;BME280;6774;48.208;10.766;2024-01-15T10:50:26;94266.44;;;5.17;57.88
13407;BME280;6774;48.208;10.766;2024-01-15T10:52:54;94265.63;;;6.02;55.87
13407;BME280;6774;48.208;10.766;2024-01-15T10:55:23;94268.50;;;5.21;56.40
13407;BME280;6774;48.208;10.766;2024-01-15T10:57:52;94258.56;;;4.95;57.47
13407;BME280;6774;48.208;10.766;2024-01-15T11:00:24;94257.28;;;5.27;57.89
13407;BME280;6774;48.208;10.766;2024-01-15T11:02:52;94254.25;;;5.45;56.92
13407;BME280;6774;48.208;10.766;2024-01-15T11:05:22;94253.88;;;6.19;54.47
13407;BME280;6774;48.208;10.766;2024-01-15T11:07:50;94255.91;;;5.74;56.29
13407;BME280;6774;48.208;10.766;2024-01-15T11:10:43;94252.06;;;5.70;57.04
13407;BME280;6774;48.208;10.766;2024-01-15T11:13:14;94244.84;;;5.72;57.30
13407;BME280;6774;48.208;10.766;2024-01-15T11:15:57;94234.59;;;5.98;56.59
13407;BME280;6774;48.208;10.766;2024-01-15T11:18:27;94242.47;;;5.77;55.50
13407;BME280;6774;48.208;10.766;2024-01-15T11:21:21;94248.09;;;5.95;56.48
13407;BME280;6774;48.208;10.766;2024-01-15T11:23:51;94238.63;;;6.29;55.73
13407;BME280;6774;48.208;10.766;2024-01-15T11:26:31;94233.88;;;6.11;57.48
13407;BME280;6774;48.208;10.766;2024-01-15T11:29:01;94230.72;;;6.98;55.56
13407;BME280;6774;48.208;10.766;2024-01-15T11:31:57;94230.34;;;7.21;52.51
13407;BME280;6774;48.208;10.766;2024-01-15T11:34:50;94233.25;;;7.86;53.20
13407;BME280;6774;48.208;10.766;2024-01-15T11:37:18;94215.03;;;8.57;50.99
13407;BME280;6774;48.208;10.766;2024-01-15T11:39:46;94193.97;;;9.15;48.88
13407;BME280;6774;48.208;10.766;2024-01-15T11:42:14;94186.19;;;8.89;49.47
13407;BME280;6774;48.208;10.766;2024-01-15T11:44:43;94178.59;;;9.44;49.00
13407;BME280;6774;48.208;10.766;2024-01-15T11:47:12;94172.56;;;9.36;48.31
13407;BME280;6774;48.208;10.766;2024-01-15T11:49:59;94156.00;;;10.66;46.53
13407;BME280;6774;48.208;10.766;2024-01-15T11:52:32;94161.75;;;10.19;47.13
13407;BME280;6774;48.208;10.766;2024-01-15T11:55:11;94166.63;;;7.87;49.71
13407;BME280;6774;48.208;10.766;2024-01-15T11:57:41;94165.63;;;7.61;52.32
13407;BME280;6774;48.208;10.766;2024-01-15T12:00:11;94172.25;;;7.24;52.35
13407;BME280;6774;48.208;10.766;2024-01-15T12:02:41;94163.72;;;7.02;53.23
13407;BME280;6774;48.208;10.766;2024-01-15T12:05:10;94181.06;;;7.03;55.22
13407;BME280;6774;48.208;10.766;2024-01-15T12:07:39;94167.72;;;5.96;56.57
13407;BME280;6774;48.208;10.766;2024-01-15T12:10:10;94178.97;;;5.40;56.80
13407;BME280;6774;48.208;10.766;2024-01-15T12:12:57;94168.38;;;5.27;58.26
13407;BME280;6774;48.208;10.766;2024-01-15T12:15:27;94164.72;;;4.13;60.08
13407;BME280;6774;48.208;10.766;2024-01-15T12:17:58;94160.00;;;2.89;62.75
13407;BME280;6774;48.208;10.766;2024-01-15T12:20:27;94167.81;;;2.66;64.82
13407;BME280;6774;48.208;10.766;2024-01-15T12:22:55;94180.22;;;2.25;65.99
13407;BME280;6774;48.208;10.766;2024-01-15T12:25:29;94165.47;;;2.48;66.25
13407;BME280;6774;48.208;10.766;2024-01-15T12:27:58;94174.78;;;2.43;65.79
13407;BME280;6774;48.208;10.766;2024-01-15T12:30:27;94169.56;;;2.12;67.55
13407;BME280;6774;48.208;10.766;2024-01-15T12:32:56;94165.50;;;2.01;68.02
13407;BME280;6774;48.208;10.766;2024-01-15T12:35:24;94166.25;;;1.79;69.22
13407;BME280;6774;48.208;10.766;2024-01-15T12:37:54;94160.19;;;1.94;70.05
13407;BME280;6774;48.208;10.766;2024-01-15T12:40:23;94163.09;;;1.91;69.90
13407;BME280;6774;48.208;10.766;2024-01-15T12:42:51;94178.06;;;1.89;71.68
13407;BME280;6774;48.208;10.766;2024-01-15T12:45:19;94183.69;;;1.54;71.81
13407;BME280;6774;48.208;10.766;2024-01-15T12:47:48;94184.59;;;1.93;71.45
13407;BME280;6774;48.208;10.766;2024-01-15T12:50:19;94197.72;;;1.92;71.63
13407;BME280;6774;48.208;10.766;2024-01-15T12:52:47;94197.63;;;1.77;71.93
13407;BME280;6774;48.208;10.766;2024-01-15T12:55:15;94172.63;;;1.60;72.59
13407;BME280;6774;48.208;10.766;2024-01-15T12:57:43;94181.06;;;1.62;72.45
13407;BME280;6774;48.208;10.766;2024-01-15T13:00:12;94174.06;;;1.70;72.66
13407;BME280;6774;48.208;10.766;2024-01-15T13:02:41;94163.00;;;1.77;72.83
13407;BME280;6774;48.208;10.766;2024-01-15T13:05:11;94174.41;;;1.59;74.04
13407;BME280;6774;48.208;10.766;2024-01-15T13:07:42;94164.53;;;1.47;74.71
13407;BME280;6774;48.208;10.766;2024-01-15T13:10:11;94161.88;;;1.63;73.96
13407;BME280;6774;48.208;10.766;2024-01-15T13:12:40;94160.75;;;1.65;74.26